createdAt,value
2022-11-29T00:01:39.192Z,69
2022-11-29T00:04:09.858Z,68
2022-11-29T00:06:40.801Z,61
2022-11-29T00:09:12.400Z,69
2022-11-29T00:11:43.533Z,60
2022-11-29T00:14:14.314Z,65
2022-11-29T00:16:43.564Z,79
2022-11-29T00:19:15.280Z,77
2022-11-29T00:21:45.826Z,67
2022-11-29T00:24:16.683Z,89
2022-11-29T00:26:47.409Z,88
2022-11-29T00:29:18.017Z,64
2022-11-29T00:31:48.875Z,73
2022-11-29T00:34:20.301Z,84
2022-11-29T00:36:50.658Z,83
2022-11-29T00:39:21.708Z,81
2022-11-29T00:41:52.741Z,76
2022-11-29T00:44:23.565Z,82
2022-11-29T00:46:54.570Z,80
2022-11-29T00:49:24.872Z,79
2022-11-29T00:51:57.093Z,62
2022-11-29T00:54:28.338Z,64
2022-11-29T00:56:59.030Z,66
2022-11-29T00:59:29.658Z,73
2022-11-29T01:01:59.947Z,72
2022-11-29T01:04:31.278Z,65
2022-11-29T01:07:02.125Z,60
2022-11-29T01:09:32.980Z,67
2022-11-29T01:12:03.589Z,62
2022-11-29T01:14:34.024Z,63
2022-11-29T01:17:05.397Z,61
2022-11-29T01:19:36.806Z,48
2022-11-29T01:22:07.601Z,71
2022-11-29T01:24:38.210Z,60
2022-11-29T01:27:09.315Z,62
2022-11-29T01:29:39.889Z,65
2022-11-29T01:32:10.489Z,61
2022-11-29T01:34:41.519Z,64
2022-11-29T01:37:12.491Z,60
2022-11-29T01:39:43.345Z,64
2022-11-29T01:42:14.454Z,66
2022-11-29T01:44:45.551Z,64
2022-11-29T01:47:16.271Z,67
2022-11-29T01:49:46.975Z,61
2022-11-29T01:52:18.563Z,58
2022-11-29T01:54:49.594Z,66
2022-11-29T01:57:20.762Z,56
2022-11-29T01:59:51.459Z,57
2022-11-29T02:02:22.817Z,58
2022-11-29T02:04:54.047Z,54
2022-11-29T02:07:25.512Z,64
2022-11-29T02:09:56.467Z,58
2022-11-29T02:12:27.159Z,59
2022-11-29T02:14:58.151Z,64
2022-11-29T02:17:29.109Z,56
2022-11-29T02:20:00.370Z,56
2022-11-29T02:22:30.874Z,64
2022-11-29T02:25:01.363Z,65
2022-11-29T02:27:32.485Z,56
2022-11-29T02:30:03.967Z,65
2022-11-29T02:32:35.172Z,63
2022-11-29T02:35:06.208Z,62
2022-11-29T02:37:36.940Z,67
2022-11-29T02:40:07.329Z,64
2022-11-29T02:42:38.200Z,60
2022-11-29T02:45:09.444Z,55
2022-11-29T02:47:40.035Z,55
2022-11-29T02:50:10.895Z,64
2022-11-29T02:52:41.712Z,89
2022-11-29T02:55:13.385Z,78
2022-11-29T02:57:44.558Z,76
2022-11-29T03:00:15.575Z,66
2022-11-29T03:02:46.795Z,64
2022-11-29T03:05:17.995Z,81
2022-11-29T03:07:48.641Z,76
2022-11-29T03:10:19.331Z,66
2022-11-29T03:12:50.042Z,76
2022-11-29T03:15:21.284Z,72
2022-11-29T03:17:52.293Z,66
2022-11-29T03:20:23.229Z,84
2022-11-29T03:22:54.423Z,96
2022-11-29T03:25:25.896Z,80
2022-11-29T03:27:57.166Z,65
2022-11-29T03:30:28.545Z,62
2022-11-29T03:32:59.043Z,80
2022-11-29T03:35:30.224Z,72
2022-11-29T03:38:00.683Z,78
2022-11-29T03:40:31.533Z,72
2022-11-29T03:43:02.570Z,75
2022-11-29T03:45:33.966Z,68
2022-11-29T03:48:04.689Z,70
2022-11-29T03:50:35.473Z,72
2022-11-29T03:53:06.733Z,65
2022-11-29T03:55:38.367Z,76
2022-11-29T03:58:09.581Z,81
2022-11-29T04:00:43.962Z,68
2022-11-29T04:03:14.911Z,60
2022-11-29T04:05:45.757Z,64
2022-11-29T04:08:17.082Z,60
2022-11-29T04:10:48.456Z,69
2022-11-29T04:13:19.424Z,63
2022-11-29T04:15:50.303Z,62
2022-11-29T04:18:20.578Z,67
2022-11-29T04:20:51.472Z,72
2022-11-29T04:23:23.616Z,69
2022-11-29T04:25:54.613Z,72
2022-11-29T04:28:25.145Z,99
2022-11-29T04:30:56.776Z,89
2022-11-29T04:33:28.051Z,96
2022-11-29T04:35:58.790Z,90
2022-11-29T04:38:29.877Z,76
2022-11-29T04:41:00.838Z,87
2022-11-29T04:43:32.229Z,74
2022-11-29T04:46:02.794Z,76
2022-11-29T04:48:34.453Z,78
2022-11-29T04:51:05.419Z,86
2022-11-29T04:53:36.333Z,68
2022-11-29T04:56:07.274Z,68
2022-11-29T04:58:38.395Z,76
2022-11-29T05:01:09.145Z,71
2022-11-29T05:03:39.950Z,75
2022-11-29T05:06:11.062Z,81
2022-11-29T05:08:41.962Z,73
2022-11-29T05:11:13.220Z,71
2022-11-29T05:13:44.339Z,67
2022-11-29T05:16:15.737Z,74
2022-11-29T05:18:46.747Z,72
2022-11-29T05:21:17.410Z,64
2022-11-29T05:23:48.545Z,67
2022-11-29T05:26:19.386Z,67
2022-11-29T05:28:50.170Z,72
2022-11-29T05:31:21.653Z,72
2022-11-29T05:33:52.676Z,68
2022-11-29T05:36:23.871Z,66
2022-11-29T05:38:54.740Z,72
2022-11-29T05:41:26.002Z,68
2022-11-29T05:43:57.293Z,70
2022-11-29T05:46:28.070Z,68
2022-11-29T05:48:59.158Z,65
2022-11-29T05:51:30.655Z,66
2022-11-29T05:54:02.141Z,76
2022-11-29T05:56:32.960Z,76
2022-11-29T05:59:04.331Z,69
2022-11-29T06:01:35.086Z,59
2022-11-29T06:04:07.942Z,66
2022-11-29T06:06:38.429Z,65
2022-11-29T06:09:09.558Z,70
2022-11-29T06:11:39.862Z,70
2022-11-29T06:14:10.918Z,63
2022-11-29T06:16:41.501Z,71
2022-11-29T06:19:12.268Z,64
2022-11-29T06:21:43.801Z,66
2022-11-29T06:24:14.777Z,66
2022-11-29T06:26:46.093Z,64
2022-11-29T06:29:17.408Z,65
2022-11-29T06:31:48.658Z,62
2022-11-29T06:34:19.687Z,68
2022-11-29T06:36:51.484Z,86
2022-11-29T06:39:21.967Z,80
2022-11-29T06:41:53.040Z,79
2022-11-29T06:44:24.010Z,79
2022-11-29T06:46:54.613Z,71
2022-11-29T06:49:25.549Z,71
2022-11-29T06:51:57.196Z,67
2022-11-29T06:54:28.456Z,63
2022-11-29T06:56:58.957Z,63
2022-11-29T06:59:30.118Z,70
2022-11-29T07:02:01.231Z,70
2022-11-29T07:04:32.095Z,76
2022-11-29T07:07:02.909Z,67
2022-11-29T07:09:34.110Z,69
2022-11-29T07:12:04.530Z,65
2022-11-29T07:14:35.825Z,60
2022-11-29T07:17:06.694Z,57
2022-11-29T07:19:37.751Z,64
2022-11-29T07:22:08.574Z,81
2022-11-29T07:24:39.257Z,76
2022-11-29T07:27:10.091Z,81
2022-11-29T07:29:40.735Z,73
2022-11-29T07:32:11.270Z,64
2022-11-29T07:34:41.606Z,57
2022-11-29T07:37:12.368Z,64
2022-11-29T07:39:43.603Z,69
2022-11-29T07:42:14.168Z,68
2022-11-29T07:44:45.433Z,60
2022-11-29T07:47:15.550Z,57
2022-11-29T07:49:45.950Z,63
2022-11-29T07:52:16.595Z,68
2022-11-29T07:54:47.574Z,59
2022-11-29T07:57:18.101Z,53
2022-11-29T07:59:48.908Z,47
2022-11-29T08:02:19.929Z,55
2022-11-29T08:04:50.250Z,51
2022-11-29T08:07:21.243Z,74
2022-11-29T08:09:52.143Z,61
2022-11-29T08:12:23.157Z,58
2022-11-29T08:14:53.578Z,61
2022-11-29T08:17:23.993Z,60
2022-11-29T08:19:54.586Z,54
2022-11-29T08:22:24.733Z,56
2022-11-29T08:24:55.500Z,57
2022-11-29T08:27:26.419Z,60
2022-11-29T08:29:56.929Z,52
2022-11-29T08:32:28.098Z,63
2022-11-29T08:34:58.986Z,66
2022-11-29T08:37:29.611Z,62
2022-11-29T08:40:00.277Z,48
2022-11-29T08:42:30.871Z,57
2022-11-29T08:45:01.169Z,61
2022-11-29T08:47:31.940Z,64
2022-11-29T08:50:02.465Z,53
2022-11-29T08:52:33.242Z,62
2022-11-29T08:55:04.284Z,52
2022-11-29T08:57:40.093Z,43
2022-11-29T09:00:06.009Z,40
2022-11-29T09:02:36.791Z,56
2022-11-29T09:05:07.499Z,36
2022-11-29T09:07:38.475Z,40
2022-11-29T09:10:08.666Z,48
2022-11-29T09:12:39.086Z,39
2022-11-29T09:15:09.503Z,43
2022-11-29T09:17:40.022Z,49
2022-11-29T09:20:10.094Z,40
2022-11-29T09:22:40.939Z,43
2022-11-29T09:25:11.181Z,39
2022-11-29T09:27:42.030Z,46
2022-11-29T09:30:12.410Z,42
2022-11-29T09:32:42.981Z,50
2022-11-29T09:35:13.747Z,59
2022-11-29T09:37:44.342Z,51
2022-11-29T09:40:15.271Z,47
2022-11-29T09:42:46.408Z,47
2022-11-29T09:45:17.122Z,56
2022-11-29T09:47:47.454Z,48
2022-11-29T09:50:18.246Z,57
2022-11-29T09:52:48.590Z,41
2022-11-29T09:55:18.918Z,49
2022-11-29T09:57:49.668Z,48
2022-11-29T10:00:20.782Z,40
2022-11-29T10:02:51.032Z,64
2022-11-29T10:05:21.941Z,52
2022-11-29T10:07:52.607Z,67
2022-11-29T10:10:22.925Z,31
2022-11-29T10:12:53.595Z,45
2022-11-29T10:15:24.019Z,38
2022-11-29T10:17:55.030Z,36
2022-11-29T10:20:25.828Z,32
2022-11-29T10:22:56.485Z,39
2022-11-29T10:25:27.211Z,35
2022-11-29T10:30:34.791Z,37
2022-11-29T10:33:05.558Z,36
2022-11-29T10:35:36.051Z,40
2022-11-29T10:38:29.475Z,37
2022-11-29T10:40:37.448Z,44
2022-11-29T10:43:08.444Z,60
2022-11-29T10:45:39.223Z,43
2022-11-29T10:48:10.231Z,35
2022-11-29T10:50:40.530Z,46
2022-11-29T10:53:11.404Z,53
2022-11-29T10:55:42.317Z,58
2022-11-29T10:58:13.616Z,32
2022-11-29T11:00:44.745Z,64
2022-11-29T11:03:15.050Z,44
2022-11-29T11:05:45.972Z,33
2022-11-29T11:08:16.343Z,40
2022-11-29T11:10:51.073Z,40
2022-11-29T11:13:17.442Z,54
2022-11-29T11:15:47.803Z,53
2022-11-29T11:18:18.742Z,48
2022-11-29T11:20:49.140Z,60
2022-11-29T11:23:19.858Z,50
2022-11-29T11:25:50.213Z,61
2022-11-29T11:28:20.894Z,60
2022-11-29T11:30:51.386Z,68
2022-11-29T11:33:22.050Z,57
2022-11-29T11:35:52.846Z,57
2022-11-29T11:38:23.587Z,56
2022-11-29T11:40:57.969Z,42
2022-11-29T11:43:24.834Z,59
2022-11-29T11:45:59.444Z,51
2022-11-29T11:48:30.399Z,52
2022-11-29T11:51:03.634Z,50
2022-11-29T11:53:32.447Z,45
2022-11-29T11:56:02.748Z,46
2022-11-29T11:58:33.375Z,48
2022-11-29T12:01:05.186Z,60
2022-11-29T12:03:35.099Z,48
2022-11-29T12:06:05.699Z,47
2022-11-29T12:08:36.924Z,47
2022-11-29T12:11:07.770Z,53
2022-11-29T12:13:38.172Z,55
2022-11-29T12:16:09.934Z,68
2022-11-29T12:18:40.885Z,61
2022-11-29T12:21:11.420Z,53
2022-11-29T12:23:42.112Z,69
2022-11-29T12:26:16.207Z,60
2022-11-29T12:28:43.759Z,36
2022-11-29T12:31:14.697Z,56
2022-11-29T12:33:45.388Z,51
2022-11-29T12:36:16.055Z,50
2022-11-29T12:38:46.564Z,49
2022-11-29T12:41:16.797Z,76
2022-11-29T12:43:47.765Z,69
2022-11-29T12:46:18.364Z,87
2022-11-29T12:48:48.952Z,68
2022-11-29T12:51:19.887Z,49
2022-11-29T12:53:50.399Z,56
2022-11-29T12:56:21.058Z,47
2022-11-29T12:58:52.212Z,51
2022-11-29T13:01:23.358Z,51
2022-11-29T13:03:54.055Z,55
2022-11-29T13:06:24.975Z,47
2022-11-29T13:08:55.321Z,46
2022-11-29T13:11:26.085Z,38
2022-11-29T13:14:08.181Z,58
2022-11-29T13:16:31.210Z,161
2022-11-29T13:18:59.283Z,77
2022-11-29T13:21:29.805Z,79
2022-11-29T13:24:08.223Z,56
2022-11-29T13:26:31.232Z,85
2022-11-29T13:29:03.415Z,68
2022-11-29T13:31:34.139Z,65
2022-11-29T13:34:04.846Z,52
2022-11-29T13:36:36.501Z,60
2022-11-29T13:39:07.585Z,95
2022-11-29T13:41:38.991Z,74
2022-11-29T13:44:09.853Z,84
2022-11-29T13:46:40.976Z,50
2022-11-29T13:49:11.944Z,71
2022-11-29T13:51:43.677Z,48
2022-11-29T13:54:14.868Z,56
2022-11-29T13:56:46.754Z,60
2022-11-29T13:59:17.703Z,37
2022-11-29T14:01:49.181Z,47
2022-11-29T14:04:19.973Z,44
2022-11-29T14:06:51.214Z,48
2022-11-29T14:09:22.222Z,36
2022-11-29T14:11:53.345Z,35
2022-11-29T14:14:24.113Z,52
2022-11-29T14:16:54.836Z,64
2022-11-29T14:19:27.748Z,59
2022-11-29T14:21:56.714Z,40
2022-11-29T14:24:28.365Z,56
2022-11-29T14:26:59.720Z,51
2022-11-29T14:29:30.674Z,52
2022-11-29T14:32:02.538Z,60
2022-11-29T14:34:34.019Z,53
2022-11-29T14:37:05.189Z,55
2022-11-29T14:39:36.203Z,70
2022-11-29T14:42:07.420Z,48
2022-11-29T14:44:38.412Z,47
2022-11-29T14:47:09.600Z,46
2022-11-29T14:49:40.724Z,60
2022-11-29T14:52:12.168Z,52
2022-11-29T14:54:45.961Z,57
2022-11-29T14:57:15.301Z,56
2022-11-29T14:59:46.466Z,62
2022-11-29T15:02:17.761Z,60
2022-11-29T15:04:48.953Z,53
2022-11-29T15:07:20.613Z,58
2022-11-29T15:09:51.749Z,60
2022-11-29T15:12:22.914Z,55
2022-11-29T15:14:54.360Z,65
2022-11-29T15:17:25.554Z,63
2022-11-29T15:19:57.691Z,61
2022-11-29T15:22:29.081Z,61
2022-11-29T15:25:00.171Z,63
2022-11-29T15:27:31.268Z,62
2022-11-29T15:30:03.895Z,64
2022-11-29T15:32:36.009Z,64
2022-11-29T15:35:07.482Z,67
2022-11-29T15:37:41.831Z,66
2022-11-29T15:40:12.550Z,65
2022-11-29T15:42:43.879Z,94
2022-11-29T15:45:15.163Z,64
2022-11-29T15:47:46.378Z,83
2022-11-29T15:50:17.689Z,72
2022-11-29T15:52:50.898Z,64
2022-11-29T15:55:22.019Z,67
2022-11-29T15:57:52.984Z,73
2022-11-29T16:00:23.769Z,77
2022-11-29T16:02:55.303Z,80
2022-11-29T16:05:25.972Z,79
2022-11-29T16:07:57.061Z,50
2022-11-29T16:10:33.566Z,56
2022-11-29T16:13:00.100Z,57
2022-11-29T16:15:31.249Z,59
2022-11-29T16:18:02.381Z,64
2022-11-29T16:20:33.831Z,62
2022-11-29T16:23:04.917Z,64
2022-11-29T16:25:37.823Z,57
2022-11-29T16:28:12.329Z,61
2022-11-29T16:30:44.742Z,60
2022-11-29T16:33:16.249Z,68
2022-11-29T16:35:47.168Z,56
2022-11-29T16:38:18.325Z,68
2022-11-29T16:40:49.144Z,62
2022-11-29T16:43:20.275Z,57
2022-11-29T16:45:51.642Z,60
2022-11-29T16:48:23.308Z,55
2022-11-29T16:50:54.116Z,51
2022-11-29T16:53:25.218Z,60
2022-11-29T16:55:56.532Z,71
2022-11-29T16:58:28.120Z,78
2022-11-29T17:00:59.732Z,76
2022-11-29T17:03:31.162Z,61
2022-11-29T17:06:02.420Z,84
2022-11-29T17:08:34.261Z,44
2022-11-29T17:11:06.205Z,52
2022-11-29T17:13:38.080Z,54
2022-11-29T17:16:09.664Z,65
2022-11-29T17:18:41.671Z,52
2022-11-29T17:21:15.620Z,72
2022-11-29T17:23:46.714Z,53
2022-11-29T17:26:18.869Z,46
2022-11-29T17:28:50.071Z,70
2022-11-29T17:31:21.264Z,49
2022-11-29T17:33:52.275Z,61
2022-11-29T17:36:23.721Z,79
2022-11-29T17:38:55.053Z,67
2022-11-29T17:41:26.038Z,56
2022-11-29T17:43:57.373Z,51
2022-11-29T17:46:30.129Z,60
2022-11-29T17:49:01.957Z,56
2022-11-29T17:54:04.202Z,45
2022-11-29T17:56:35.579Z,44
2022-11-29T17:59:07.135Z,48
2022-11-29T18:01:38.621Z,63
2022-11-29T18:04:10.151Z,42
2022-11-29T18:06:41.329Z,37
2022-11-29T18:09:13.240Z,60
2022-11-29T18:11:48.424Z,54
2022-11-29T18:14:15.957Z,61
2022-11-29T18:16:46.702Z,44
2022-11-29T18:19:17.957Z,50
2022-11-29T18:21:49.075Z,48
2022-11-29T18:24:20.028Z,37
2022-11-29T18:26:51.199Z,40
2022-11-29T18:29:22.596Z,35
2022-11-29T18:31:53.767Z,50
2022-11-29T18:34:24.844Z,61
2022-11-29T18:36:57.017Z,42
2022-11-29T18:39:28.880Z,51
2022-11-29T18:42:00.202Z,41
2022-11-29T18:44:31.504Z,46
2022-11-29T18:47:02.614Z,53
2022-11-29T18:49:33.852Z,45
2022-11-29T18:52:04.593Z,45
2022-11-29T18:54:36.322Z,69
2022-11-29T18:57:07.588Z,96
2022-11-29T18:59:38.910Z,64
2022-11-29T19:02:09.892Z,58
2022-11-29T19:04:41.555Z,66
2022-11-29T19:07:13.278Z,81
2022-11-29T19:09:45.693Z,91
2022-11-29T19:12:17.049Z,63
2022-11-29T19:14:49.937Z,80
2022-11-29T19:17:19.435Z,109
2022-11-29T19:19:50.868Z,69
2022-11-29T19:22:21.647Z,76
2022-11-29T19:24:52.791Z,70
2022-11-29T19:27:23.878Z,59
2022-11-29T19:29:55.742Z,57
2022-11-29T19:32:28.970Z,41
2022-11-29T19:35:00.382Z,42
2022-11-29T19:37:32.834Z,47
2022-11-29T19:40:05.144Z,45
2022-11-29T19:42:38.394Z,37
2022-11-29T19:45:16.795Z,31
2022-11-29T19:47:40.488Z,43
2022-11-29T19:50:11.505Z,56
2022-11-29T19:52:43.014Z,56
2022-11-29T19:55:14.258Z,58
2022-11-29T19:57:45.788Z,64
2022-11-29T20:00:16.950Z,53
2022-11-29T20:02:48.639Z,46
2022-11-29T20:05:20.196Z,50
2022-11-29T20:07:51.771Z,91
2022-11-29T20:10:23.331Z,77
2022-11-29T20:12:54.258Z,64
2022-11-29T20:15:25.558Z,60
2022-11-29T20:17:56.943Z,65
2022-11-29T20:20:31.150Z,76
2022-11-29T20:23:02.763Z,62
2022-11-29T20:25:33.955Z,76
2022-11-29T20:28:06.278Z,60
2022-11-29T20:30:37.774Z,53
2022-11-29T20:33:08.765Z,60
2022-11-29T20:35:39.765Z,51
2022-11-29T20:38:11.919Z,48
2022-11-29T20:40:43.815Z,58
2022-11-29T20:43:16.535Z,43
2022-11-29T20:45:48.299Z,48
2022-11-29T20:48:19.485Z,45
2022-11-29T20:50:50.946Z,55
2022-11-29T20:53:22.054Z,57
2022-11-29T20:55:54.124Z,55
2022-11-29T20:58:25.391Z,63
2022-11-29T21:00:56.717Z,59
2022-11-29T21:03:30.505Z,48
2022-11-29T21:06:01.756Z,67
2022-11-29T21:08:33.038Z,64
2022-11-29T21:11:04.300Z,49
2022-11-29T21:13:36.422Z,46
2022-11-29T21:16:09.157Z,62
2022-11-29T21:18:40.455Z,68
2022-11-29T21:21:11.393Z,44
2022-11-29T21:23:42.440Z,45
2022-11-29T21:26:16.607Z,52
2022-11-29T21:28:49.184Z,40
2022-11-29T21:31:20.191Z,60
2022-11-29T21:33:51.237Z,55
2022-11-29T21:36:22.343Z,64
2022-11-29T21:38:55.178Z,61
2022-11-29T21:41:25.218Z,44
2022-11-29T21:44:12.027Z,51
2022-11-29T21:46:28.744Z,51
2022-11-29T21:49:00.189Z,41
2022-11-29T21:51:31.658Z,53
2022-11-29T21:54:02.403Z,44
2022-11-29T21:56:34.584Z,33
2022-11-29T21:59:06.129Z,56
2022-11-29T22:01:37.664Z,50
2022-11-29T22:04:08.583Z,59
2022-11-29T22:06:40.032Z,51
2022-11-29T22:09:11.133Z,45
2022-11-29T22:11:42.245Z,48
2022-11-29T22:14:13.656Z,41
2022-11-29T22:16:44.818Z,32
2022-11-29T22:19:16.003Z,40
2022-11-29T22:21:47.031Z,44
2022-11-29T22:24:18.728Z,36
2022-11-29T22:26:50.029Z,49
2022-11-29T22:29:21.298Z,48
2022-11-29T22:31:52.256Z,40
2022-11-29T22:34:22.968Z,33
2022-11-29T22:36:55.085Z,44
2022-11-29T22:39:26.821Z,28
2022-11-29T22:41:58.338Z,32
2022-11-29T22:44:29.744Z,32
2022-11-29T22:47:00.971Z,36
2022-11-29T22:49:32.661Z,35
2022-11-29T22:52:03.854Z,28
2022-11-29T22:54:35.203Z,26
2022-11-29T22:57:06.228Z,25
2022-11-29T22:59:37.518Z,21
2022-11-29T23:02:09.396Z,28
2022-11-29T23:04:40.425Z,25
2022-11-29T23:07:11.068Z,24
2022-11-29T23:09:42.246Z,24
2022-11-29T23:12:14.712Z,25
2022-11-29T23:14:49.216Z,42
2022-11-29T23:17:17.260Z,25
2022-11-29T23:19:47.804Z,23
2022-11-29T23:22:18.421Z,20
2022-11-29T23:24:49.453Z,25
2022-11-29T23:27:19.426Z,66
2022-11-29T23:29:49.399Z,24
2022-11-29T23:32:20.242Z,21
2022-11-29T23:34:51.486Z,34
2022-11-29T23:37:21.872Z,23
2022-11-29T23:39:52.440Z,22
2022-11-29T23:42:22.706Z,20
2022-11-29T23:44:54.002Z,23
2022-11-29T23:47:24.723Z,23
2022-11-29T23:49:55.263Z,24
2022-11-29T23:52:25.782Z,20
2022-11-29T23:54:56.343Z,19
2022-11-29T23:57:27.241Z,21
2022-11-29T23:59:57.605Z,19
